Crivitz, WI

3:04 PM CDT on September 20, 2014 (GMT -0500)
Door County Cherryland | Change Station
CLOSE
Current Station
Airport
Location: Sturgeon Bay,
Elevation: 725 ft
Nearby Weather Stations

Elev 725 ft 44.84 °N, 87.42 °W | Updated 9 minutes ago

Partly Cloudy
Partly Cloudy
70 °F
Feels Like 70 °F
N
16
Wind Variable Wind from SW
Gusts 20 mph

Today
High -- | Low -- °F
--% Chance of Precip.
Yesterday
High -- | Low -- °F
Precip. -- in
6:37 AM 6:53 PM
Waning Crescent, 10% visible
Pressure 29.68 in
Visibility 10.0 miles
Clouds Clear
Dew Point 63 °F
Humidity 78%
Rainfall 0.00 in
Snow Depth Not available.
UV 5 out of 12
Pollen .50 out of 12
Air Quality Not available.
Flu Activity Not available.
METAR KSUE 201955Z AUTO 23014G17KT 10SM CLR 21/17 A2968 RMK AO1

More Conditions Fewer Conditions

Pressure 29.68 in
Visibility 10.0 miles
Clouds Clear
Dew Point 63 °F
Humidity 78%
Rainfall 0.00 in
Snow Depth Not available.
UV 5 out of 12
Pollen .50 out of 12
Air Quality Not available.
Flu Activity Not available.
METAR KSUE 201955Z AUTO 23014G17KT 10SM CLR 21/17 A2968 RMK AO1

More Conditions Fewer Conditions

10-Day Weather Forecast

Almanac

Astronomy

Sep. 20, 2014 Rise Set
Actual Time 6:37 AM CDT 6:53 PM CDT
Civil Twilight 6:07 AM CDT 7:23 PM CDT
Nautical Twilight 5:33 AM CDT 7:58 PM CDT
Astronomical Twilight 4:57 AM CDT 8:33 PM CDT
Moon 3:08 AM CDT 5:03 PM CDT
Length of Visible Light 13h 15m
Length of Day
12h 16m
Tomorrow will be 3m 8s shorter.
Waning Crescent, 10% of the Moon is Illuminated
Today
Waning Crescent
Sep 24
New
Oct 1
First Quarter
Oct 8
Full
Oct 15
Last Quarter

Today's Extremes

State Highs State Lows

Community

WunderPhotos

Upload Photos

1,754,927 photos uploaded!

WunderBlogs® & News

Nearby

Snow Depth

Station Depth Elevation
No new snow has been reported.

Earthquake Activity

City Distance Mag. Time & Date
No recent earthquake activity has been reported nearby.
Minimum magnitude displayed is 2.5.

Coastal Water Temperatures

Place Temperature
Menominee, MI 60.1 °F

Nearby Weather Stations